createdAt,value
2022-10-08T00:01:16.535Z,101003.03
2022-10-08T00:03:45.658Z,101009.84
2022-10-08T00:06:17.423Z,101012.38
2022-10-08T00:08:49.485Z,100999.38
2022-10-08T00:11:20.704Z,101000.13
2022-10-08T00:13:49.088Z,100994.84
2022-10-08T00:16:29.092Z,100994.84
2022-10-08T00:19:00.230Z,101002.56
2022-10-08T00:21:32.672Z,100997.31
2022-10-08T00:24:01.568Z,101006.81
2022-10-08T00:26:30.248Z,101004.91
2022-10-08T00:28:59.043Z,101004.78
2022-10-08T00:31:32.669Z,101007.31
2022-10-08T00:34:01.583Z,101002.84
2022-10-08T00:36:31.784Z,101001.09
2022-10-08T00:39:00.516Z,101000.13
2022-10-08T00:41:29.862Z,101005.31
2022-10-08T00:44:03.311Z,101005.38
2022-10-08T00:46:37.769Z,100999.38
2022-10-08T00:49:11.639Z,100990.66
2022-10-08T00:51:49.866Z,101004.50
2022-10-08T00:54:18.834Z,100995.91
2022-10-08T00:56:49.608Z,100999.31
2022-10-08T00:59:17.548Z,100989.91
2022-10-08T01:01:44.727Z,100987.47
2022-10-08T01:04:12.438Z,100989.22
2022-10-08T01:07:35.735Z,100979.88
2022-10-08T01:10:38.254Z,100986.88
2022-10-08T01:13:11.405Z,100978.34
2022-10-08T01:16:05.361Z,100979.28
2022-10-08T01:18:39.913Z,100981.97
2022-10-08T01:21:16.272Z,100970.78
2022-10-08T01:23:55.146Z,100968.25
2022-10-08T01:26:56.361Z,100964.84
2022-10-08T01:29:30.733Z,100969.19
2022-10-08T01:32:04.346Z,100967.56
2022-10-08T01:34:37.623Z,100972.81
2022-10-08T01:37:06.222Z,100967.69
2022-10-08T01:39:35.201Z,100969.50
2022-10-08T01:42:04.115Z,100964.41
2022-10-08T01:44:43.129Z,100949.75
2022-10-08T01:47:11.975Z,100955.88
2022-10-08T01:49:46.265Z,100951.56
2022-10-08T01:52:19.031Z,100950.69
2022-10-08T01:54:48.404Z,100952.44
2022-10-08T01:57:15.226Z,100949.81
2022-10-08T01:59:50.838Z,100954.97
2022-10-08T02:02:22.671Z,100960.22
2022-10-08T02:04:51.441Z,100955.03
2022-10-08T02:07:21.078Z,100952.44
2022-10-08T02:09:53.550Z,100954.22
2022-10-08T02:12:23.141Z,100949.03
2022-10-08T02:14:54.472Z,100947.31
2022-10-08T02:17:43.706Z,100952.50
2022-10-08T02:20:26.076Z,100949.91
2022-10-08T02:22:59.121Z,100946.44
2022-10-08T02:25:34.673Z,100950.81
2022-10-08T02:28:19.470Z,100955.16
2022-10-08T02:30:53.615Z,100951.69
2022-10-08T02:33:27.075Z,100956.75
2022-10-08T02:35:57.209Z,100956.69
2022-10-08T02:38:32.001Z,100956.69
2022-10-08T02:41:00.351Z,100954.94
2022-10-08T02:43:30.321Z,100954.09
2022-10-08T02:46:07.623Z,100969.66
2022-10-08T02:48:36.434Z,100959.28
2022-10-08T02:51:06.367Z,100960.00
2022-10-08T02:53:34.318Z,100966.91
2022-10-08T02:56:00.654Z,100956.47
2022-10-08T02:58:27.112Z,100952.06
2022-10-08T03:00:58.461Z,100971.03
2022-10-08T03:03:32.077Z,100963.19
2022-10-08T03:06:02.141Z,100965.72
2022-10-08T03:08:29.471Z,100960.41
2022-10-08T03:10:56.063Z,100967.31
2022-10-08T03:13:23.625Z,100962.03
2022-10-08T03:15:51.872Z,100955.97
2022-10-08T03:18:18.543Z,100964.63
2022-10-08T03:20:49.314Z,100962.03
2022-10-08T03:23:17.777Z,100968.03
2022-10-08T03:25:44.669Z,100966.28
2022-10-08T03:28:11.332Z,100962.66
2022-10-08T03:30:37.870Z,100967.78
2022-10-08T03:33:04.440Z,100965.91
2022-10-08T03:35:31.960Z,100968.34
2022-10-08T03:37:58.383Z,100964.69
2022-10-08T03:40:24.838Z,100964.69
2022-10-08T03:42:51.629Z,100965.38
2022-10-08T03:45:18.103Z,100958.38
2022-10-08T03:47:44.574Z,100956.50
2022-10-08T03:50:11.103Z,100959.09
2022-10-08T03:52:37.972Z,100964.38
2022-10-08T03:55:04.935Z,100954.88
2022-10-08T03:57:31.452Z,100963.59
2022-10-08T03:59:58.111Z,100955.00
2022-10-08T04:02:24.807Z,100961.97
2022-10-08T04:04:51.767Z,100964.63
2022-10-08T04:07:18.301Z,100959.50
2022-10-08T04:09:44.925Z,100957.78
2022-10-08T04:12:11.654Z,100965.56
2022-10-08T04:14:38.388Z,100960.44
2022-10-08T04:17:05.042Z,100961.25
2022-10-08T04:19:31.615Z,100956.97
2022-10-08T04:21:58.185Z,100964.69
2022-10-08T04:24:24.758Z,100956.91
2022-10-08T04:26:51.391Z,100957.66
2022-10-08T04:29:18.063Z,100964.56
2022-10-08T04:31:44.641Z,100956.72
2022-10-08T04:34:11.948Z,100959.25
2022-10-08T04:36:39.317Z,100958.38
2022-10-08T04:39:05.884Z,100957.38
2022-10-08T04:41:32.476Z,100954.72
2022-10-08T04:44:01.202Z,100955.53
2022-10-08T04:46:28.278Z,100953.72
2022-10-08T04:48:56.296Z,100958.84
2022-10-08T04:51:24.841Z,100957.88
2022-10-08T04:53:52.316Z,100950.94
2022-10-08T04:56:21.389Z,100961.25
2022-10-08T04:58:48.672Z,100960.34
2022-10-08T05:01:20.293Z,100948.13
2022-10-08T05:03:49.242Z,100951.53
2022-10-08T05:06:23.345Z,100954.06
2022-10-08T05:08:54.404Z,100952.28
2022-10-08T05:11:24.150Z,100954.00
2022-10-08T05:13:57.916Z,100955.78
2022-10-08T05:16:25.522Z,100949.75
2022-10-08T05:18:52.600Z,100955.00
2022-10-08T05:21:22.027Z,100945.53
2022-10-08T05:23:48.655Z,100945.53
2022-10-08T05:26:25.820Z,100950.72
2022-10-08T05:29:07.409Z,100948.13
2022-10-08T05:31:36.704Z,100957.66
2022-10-08T05:34:03.319Z,100952.47
2022-10-08T05:36:31.445Z,100961.97
2022-10-08T05:38:59.996Z,100965.38
2022-10-08T05:41:28.759Z,100970.56
2022-10-08T05:43:56.681Z,100968.84
2022-10-08T05:46:25.298Z,100964.56
2022-10-08T05:48:55.902Z,100967.16
2022-10-08T05:51:23.239Z,100968.78
2022-10-08T05:53:51.044Z,100972.31
2022-10-08T05:56:19.802Z,100986.38
2022-10-08T05:58:47.707Z,100972.63
2022-10-08T06:01:15.461Z,100977.91
2022-10-08T06:03:42.588Z,100969.31
2022-10-08T06:06:11.029Z,100975.34
2022-10-08T06:08:38.339Z,100981.41
2022-10-08T06:11:06.437Z,100977.09
2022-10-08T06:13:57.540Z,100982.41
2022-10-08T06:16:25.166Z,100989.59
2022-10-08T06:18:51.965Z,100991.59
2022-10-08T06:21:23.463Z,100987.66
2022-10-08T06:23:52.897Z,100994.94
2022-10-08T06:26:20.057Z,100991.78
2022-10-08T06:28:46.821Z,100989.50
2022-10-08T06:31:13.691Z,100997.59
2022-10-08T06:33:40.941Z,101004.00
2022-10-08T06:36:20.447Z,101006.91
2022-10-08T06:38:51.302Z,101004.63
2022-10-08T06:41:18.452Z,101006.78
2022-10-08T06:43:48.837Z,101013.16
2022-10-08T06:46:16.182Z,101008.34
2022-10-08T06:48:43.006Z,101013.91
2022-10-08T06:51:15.218Z,101013.38
2022-10-08T06:53:46.504Z,101012.88
2022-10-08T06:56:18.046Z,101019.25
2022-10-08T06:58:45.178Z,101016.13
2022-10-08T07:01:32.918Z,101024.34
2022-10-08T07:04:01.288Z,101023.78
2022-10-08T07:06:28.792Z,101025.84
2022-10-08T07:08:57.402Z,101024.47
2022-10-08T07:11:24.627Z,101027.38
2022-10-08T07:13:51.290Z,101017.28
2022-10-08T07:16:21.328Z,101022.84
2022-10-08T07:18:49.171Z,101019.66
2022-10-08T07:21:16.932Z,101014.75
2022-10-08T07:23:43.883Z,101020.28
2022-10-08T07:26:22.167Z,101013.66
2022-10-08T07:28:50.585Z,101027.81
2022-10-08T07:31:23.146Z,101026.41
2022-10-08T07:33:50.380Z,101028.31
2022-10-08T07:36:21.963Z,101023.19
2022-10-08T07:38:48.706Z,101028.72
2022-10-08T07:41:15.362Z,101019.56
2022-10-08T07:43:42.971Z,101025.88
2022-10-08T07:46:11.225Z,101027.06
2022-10-08T07:48:38.646Z,101031.88
2022-10-08T07:51:18.229Z,101030.50
2022-10-08T07:53:45.087Z,101034.41
2022-10-08T07:56:14.229Z,101046.09
2022-10-08T07:58:41.432Z,101042.75
2022-10-08T08:01:12.065Z,101055.13
2022-10-08T08:03:42.021Z,101056.00
2022-10-08T08:06:13.580Z,101057.88
2022-10-08T08:08:42.577Z,101065.00
2022-10-08T08:11:11.299Z,101074.50
2022-10-08T08:13:39.631Z,101073.66
2022-10-08T08:16:18.091Z,101073.41
2022-10-08T08:18:47.139Z,101071.63
2022-10-08T08:21:15.835Z,101087.44
2022-10-08T08:23:44.819Z,101080.63
2022-10-08T08:26:16.600Z,101081.63
2022-10-08T08:28:43.660Z,101093.22
2022-10-08T08:31:12.753Z,101088.28
2022-10-08T08:33:39.897Z,101091.22
2022-10-08T08:36:06.892Z,101097.50
2022-10-08T08:38:39.914Z,101082.81
2022-10-08T08:41:14.209Z,101082.00
2022-10-08T08:43:42.316Z,101091.56
2022-10-08T08:46:11.063Z,101095.06
2022-10-08T08:48:39.623Z,101090.69
2022-10-08T08:51:06.263Z,101093.19
2022-10-08T08:53:33.948Z,101094.03
2022-10-08T08:56:03.786Z,101091.44
2022-10-08T08:58:35.522Z,101101.00
2022-10-08T09:01:29.872Z,101101.81
2022-10-08T09:03:59.643Z,101103.53
2022-10-08T09:06:26.357Z,101107.81
2022-10-08T09:09:02.069Z,101120.81
2022-10-08T09:11:29.600Z,101118.19
2022-10-08T09:14:17.525Z,101119.94
2022-10-08T09:16:44.609Z,101118.31
2022-10-08T09:19:14.272Z,101136.69
2022-10-08T09:21:41.123Z,101135.88
2022-10-08T09:24:08.448Z,101140.22
2022-10-08T09:26:35.716Z,101159.41
2022-10-08T09:29:04.275Z,101155.06
2022-10-08T09:31:43.077Z,101151.59
2022-10-08T09:34:15.880Z,101161.28
2022-10-08T09:37:13.085Z,101167.47
2022-10-08T09:39:39.745Z,101166.69
2022-10-08T09:42:17.644Z,101169.38
2022-10-08T09:44:52.913Z,101174.59
2022-10-08T09:47:23.849Z,101178.94
2022-10-08T09:50:06.882Z,101192.91
2022-10-08T09:52:34.957Z,101184.03
2022-10-08T09:55:17.759Z,101183.00
2022-10-08T09:57:50.403Z,101182.16
2022-10-08T10:00:30.267Z,101190.78
2022-10-08T10:02:57.859Z,101193.28
2022-10-08T10:05:39.030Z,101196.69
2022-10-08T10:08:05.544Z,101196.69
2022-10-08T10:10:45.139Z,101198.38
2022-10-08T10:13:36.294Z,101190.53
2022-10-08T10:16:05.292Z,101189.97
2022-10-08T10:18:54.695Z,101196.97
2022-10-08T10:21:30.494Z,101199.00
2022-10-08T10:24:21.574Z,101189.59
2022-10-08T10:26:50.524Z,101184.59
2022-10-08T10:29:22.217Z,101194.31
2022-10-08T10:31:52.709Z,101195.44
2022-10-08T10:34:24.117Z,101195.44
2022-10-08T10:37:10.096Z,101202.53
2022-10-08T10:39:43.192Z,101205.38
2022-10-08T10:42:14.973Z,101189.69
2022-10-08T10:45:49.975Z,101207.22
2022-10-08T10:48:17.511Z,101199.38
2022-10-08T10:51:33.779Z,101193.41
2022-10-08T10:54:58.092Z,101198.78
2022-10-08T10:57:45.556Z,101199.78
2022-10-08T11:00:28.461Z,101204.00
2022-10-08T11:03:14.300Z,101196.22
2022-10-08T11:05:43.606Z,101201.69
2022-10-08T11:16:16.758Z,101196.16
2022-10-08T11:18:58.474Z,101201.47
2022-10-08T11:21:37.613Z,101201.66
2022-10-08T11:24:14.525Z,101207.78
2022-10-08T11:26:56.245Z,101206.13
2022-10-08T11:29:37.927Z,101210.53
2022-10-08T11:32:10.811Z,101205.31
2022-10-08T11:34:37.999Z,101207.88
2022-10-08T11:37:04.813Z,101208.06
2022-10-08T11:40:09.913Z,101204.53
2022-10-08T11:42:48.138Z,101195.09
2022-10-08T11:45:24.084Z,101202.06
2022-10-08T11:47:53.620Z,101196.06
2022-10-08T11:50:30.833Z,101193.53
2022-10-08T11:53:01.434Z,101202.31
2022-10-08T11:55:35.417Z,101192.03
2022-10-08T11:58:08.110Z,101194.78
2022-10-08T12:00:48.395Z,101193.31
2022-10-08T12:03:27.413Z,101190.00
2022-10-08T12:06:34.714Z,101183.91
2022-10-08T12:09:03.294Z,101178.84
2022-10-08T12:11:29.972Z,101177.22
2022-10-08T12:14:14.867Z,101178.13
2022-10-08T12:16:47.973Z,101167.78
2022-10-08T12:19:36.028Z,101166.97
2022-10-08T12:22:03.577Z,101169.63
2022-10-08T12:24:53.178Z,101176.81
2022-10-08T12:27:28.854Z,101179.53
2022-10-08T12:30:16.761Z,101172.63
2022-10-08T12:32:43.384Z,101167.41
2022-10-08T12:35:25.305Z,101168.44
2022-10-08T12:38:13.900Z,101171.94
2022-10-08T12:41:05.150Z,101158.94
2022-10-08T12:43:50.476Z,101172.94
2022-10-08T12:46:29.661Z,101173.78
2022-10-08T12:49:29.708Z,101169.25
2022-10-08T12:52:10.290Z,101169.97
2022-10-08T12:54:40.171Z,101169.16
2022-10-08T12:57:12.435Z,101169.94
2022-10-08T12:59:40.816Z,101169.94
2022-10-08T13:02:32.132Z,101169.00
2022-10-08T13:04:58.692Z,101172.44
2022-10-08T13:07:31.090Z,101175.97
2022-10-08T13:09:59.816Z,101174.94
2022-10-08T13:12:26.701Z,101177.69
2022-10-08T13:15:08.686Z,101181.25
2022-10-08T13:17:37.074Z,101177.81
2022-10-08T13:20:19.667Z,101182.25
2022-10-08T13:22:46.356Z,101176.34
2022-10-08T13:25:48.461Z,101182.47
2022-10-08T13:28:36.180Z,101192.22
2022-10-08T13:31:21.867Z,101198.41
2022-10-08T13:33:48.477Z,101188.03
2022-10-08T13:36:21.330Z,101192.53
2022-10-08T13:38:47.999Z,101192.53
2022-10-08T13:41:23.712Z,101196.91
2022-10-08T13:43:50.662Z,101203.81
2022-10-08T13:46:17.240Z,101223.69
2022-10-08T13:48:44.490Z,101268.53
2022-10-08T13:51:11.349Z,101279.31
2022-10-08T13:53:38.011Z,101285.78
2022-10-08T13:56:05.799Z,101290.41
2022-10-08T13:58:32.855Z,101288.88
2022-10-08T14:00:59.512Z,101294.75
2022-10-08T14:03:26.391Z,101298.03
2022-10-08T14:05:52.992Z,101291.84
2022-10-08T14:08:24.168Z,101298.00
2022-10-08T14:10:57.568Z,101287.16
2022-10-08T14:13:24.625Z,101294.97
2022-10-08T14:15:51.293Z,101298.44
2022-10-08T14:18:17.951Z,101294.72
2022-10-08T14:20:44.568Z,101310.78
2022-10-08T14:23:13.611Z,101292.53
2022-10-08T14:25:40.170Z,101295.84
2022-10-08T14:28:06.748Z,101309.53
2022-10-08T14:30:33.344Z,101301.53
2022-10-08T14:32:59.887Z,101303.34
2022-10-08T14:35:26.302Z,101299.84
2022-10-08T14:37:52.712Z,101292.91
2022-10-08T14:40:21.211Z,101305.88
2022-10-08T14:42:47.943Z,101310.94
2022-10-08T14:45:14.781Z,101305.63
2022-10-08T14:47:41.837Z,101315.91
2022-10-08T14:50:08.643Z,101311.41
2022-10-08T14:52:44.389Z,101320.78
2022-10-08T14:55:11.895Z,101310.22
2022-10-08T14:57:38.347Z,101316.19
2022-10-08T15:00:05.502Z,101307.63
2022-10-08T15:02:31.956Z,101305.00
2022-10-08T15:04:58.405Z,101310.97
2022-10-08T15:07:24.818Z,101313.63
2022-10-08T15:09:51.439Z,101307.66
2022-10-08T15:12:17.862Z,101305.09
2022-10-08T15:14:44.282Z,101307.81
2022-10-08T15:17:10.750Z,101318.47
2022-10-08T15:19:37.187Z,101319.41
2022-10-08T15:22:03.698Z,101311.66
2022-10-08T15:24:30.161Z,101328.19
2022-10-08T15:26:56.599Z,101322.97
2022-10-08T15:29:23.033Z,101334.06
2022-10-08T15:31:50.739Z,101341.88
2022-10-08T15:34:18.854Z,101331.34
2022-10-08T15:36:45.737Z,101348.78
2022-10-08T15:39:15.035Z,101343.47
2022-10-08T15:41:46.665Z,101344.28
2022-10-08T15:44:22.297Z,101334.75
2022-10-08T15:46:59.128Z,101338.22
2022-10-08T15:49:40.569Z,101339.84
2022-10-08T15:52:08.751Z,101339.84
2022-10-08T15:54:36.404Z,101347.69
2022-10-08T15:57:03.234Z,101341.53
2022-10-08T15:59:29.666Z,101351.97
2022-10-08T16:01:56.105Z,101348.41
2022-10-08T16:04:22.551Z,101349.25
2022-10-08T16:06:48.970Z,101352.69
2022-10-08T16:09:16.700Z,101363.00
2022-10-08T16:11:44.295Z,101359.41
2022-10-08T16:14:19.471Z,101367.09
2022-10-08T16:16:46.156Z,101373.13
2022-10-08T16:19:16.286Z,101373.91
2022-10-08T16:21:44.033Z,101378.16
2022-10-08T16:24:10.715Z,101373.72
2022-10-08T16:26:37.930Z,101384.03
2022-10-08T16:29:06.874Z,101383.00
2022-10-08T16:31:35.867Z,101387.28
2022-10-08T16:34:05.473Z,101395.84
2022-10-08T16:36:33.862Z,101394.84
2022-10-08T16:39:00.677Z,101401.66
2022-10-08T16:41:29.145Z,101410.16
2022-10-08T16:43:58.217Z,101414.34
2022-10-08T16:46:30.212Z,101422.84
2022-10-08T16:49:02.741Z,101422.69
2022-10-08T16:51:32.394Z,101427.78
2022-10-08T16:54:00.296Z,101429.34
2022-10-08T16:56:32.721Z,101439.63
2022-10-08T16:59:01.556Z,101447.31
2022-10-08T17:01:28.085Z,101448.91
2022-10-08T17:03:54.993Z,101449.63
2022-10-08T17:06:22.693Z,101458.19
2022-10-08T17:08:50.189Z,101462.38
2022-10-08T17:11:17.598Z,101460.44
2022-10-08T17:13:46.461Z,101470.75
2022-10-08T17:16:14.337Z,101475.75
2022-10-08T17:18:43.095Z,101486.97
2022-10-08T17:21:10.277Z,101486.84
2022-10-08T17:23:38.256Z,101497.16
2022-10-08T17:26:10.421Z,101502.25
2022-10-08T17:28:40.718Z,101506.44
2022-10-08T17:31:08.990Z,101506.31
2022-10-08T17:33:36.579Z,101519.28
2022-10-08T17:36:14.510Z,101520.00
2022-10-08T17:38:42.206Z,101520.72
2022-10-08T17:41:19.049Z,101531.91
2022-10-08T17:43:46.152Z,101537.84
2022-10-08T17:46:15.855Z,101538.63
2022-10-08T17:48:42.839Z,101546.38
2022-10-08T17:51:12.195Z,101542.81
2022-10-08T17:53:39.623Z,101550.47
2022-10-08T17:56:08.149Z,101556.41
2022-10-08T17:58:34.997Z,101553.63
2022-10-08T18:01:15.983Z,101559.44
2022-10-08T18:03:43.930Z,101560.19
2022-10-08T18:06:11.465Z,101567.00
2022-10-08T18:08:38.187Z,101562.47
2022-10-08T18:11:06.789Z,101568.41
2022-10-08T18:13:33.836Z,101573.47
2022-10-08T18:16:08.650Z,101582.00
2022-10-08T18:18:35.506Z,101590.50
2022-10-08T18:21:02.484Z,101588.63
2022-10-08T18:23:31.500Z,101591.09
2022-10-08T18:26:32.281Z,101592.63
2022-10-08T18:29:00.347Z,101593.38
2022-10-08T18:31:28.797Z,101601.97
2022-10-08T18:34:01.786Z,101606.16
2022-10-08T18:36:30.996Z,101606.03
2022-10-08T18:39:03.368Z,101617.97
2022-10-08T18:41:31.718Z,101620.56
2022-10-08T18:44:00.604Z,101616.03
2022-10-08T18:46:28.265Z,101624.50
2022-10-08T18:48:55.479Z,101627.94
2022-10-08T18:51:24.235Z,101637.38
2022-10-08T18:53:52.777Z,101633.75
2022-10-08T18:56:28.765Z,101634.47
2022-10-08T18:58:56.448Z,101640.44
2022-10-08T19:01:28.010Z,101643.72
2022-10-08T19:03:56.673Z,101637.50
2022-10-08T19:06:28.892Z,101645.97
2022-10-08T19:08:56.515Z,101641.38
2022-10-08T19:11:25.959Z,101650.75
2022-10-08T19:13:53.300Z,101651.34
2022-10-08T19:16:19.989Z,101654.69
2022-10-08T19:19:03.935Z,101651.06
2022-10-08T19:21:31.651Z,101658.72
2022-10-08T19:23:59.311Z,101662.84
2022-10-08T19:26:26.515Z,101667.09
2022-10-08T19:28:54.133Z,101674.75
2022-10-08T19:31:23.741Z,101672.91
2022-10-08T19:33:58.765Z,101678.84
2022-10-08T19:36:26.594Z,101675.25
2022-10-08T19:39:01.690Z,101680.31
2022-10-08T19:41:29.188Z,101683.56
2022-10-08T19:43:56.578Z,101698.13
2022-10-08T19:46:23.796Z,101690.28
2022-10-08T19:48:51.681Z,101691.88
2022-10-08T19:51:19.018Z,101693.50
2022-10-08T19:53:45.883Z,101708.94
2022-10-08T19:56:12.832Z,101708.06
2022-10-08T19:58:43.928Z,101702.72
2022-10-08T20:01:24.081Z,101708.66
2022-10-08T20:03:57.683Z,101718.00
2022-10-08T20:06:26.561Z,101717.88
2022-10-08T20:08:58.435Z,101715.94
2022-10-08T20:11:25.533Z,101717.41
2022-10-08T20:13:53.123Z,101737.19
2022-10-08T20:16:28.234Z,101724.88
2022-10-08T20:19:00.823Z,101737.69
2022-10-08T20:21:28.983Z,101739.25
2022-10-08T20:23:55.734Z,101741.78
2022-10-08T20:26:25.950Z,101743.38
2022-10-08T20:28:54.695Z,101739.75
2022-10-08T20:31:23.281Z,101742.19
2022-10-08T20:33:56.401Z,101747.22
2022-10-08T20:36:23.440Z,101737.53
2022-10-08T20:38:51.217Z,101744.44
2022-10-08T20:41:17.811Z,101745.09
2022-10-08T20:43:44.263Z,101745.84
2022-10-08T20:46:12.799Z,101752.66
2022-10-08T20:48:40.855Z,101748.34
2022-10-08T20:51:09.333Z,101755.16
2022-10-08T20:53:35.994Z,101755.97
2022-10-08T20:56:07.769Z,101756.78
2022-10-08T20:58:35.282Z,101764.47
2022-10-08T21:01:06.402Z,101764.31
2022-10-08T21:03:33.413Z,101755.56
2022-10-08T21:06:00.614Z,101766.69
2022-10-08T21:08:27.034Z,101768.38
2022-10-08T21:10:53.474Z,101765.69
2022-10-08T21:13:20.486Z,101768.22
2022-10-08T21:15:46.967Z,101762.03
2022-10-08T21:18:13.439Z,101774.91
2022-10-08T21:20:39.825Z,101781.72
2022-10-08T21:23:06.245Z,101776.47
2022-10-08T21:25:32.638Z,101781.56
2022-10-08T21:27:59.052Z,101784.09
2022-10-08T21:30:25.450Z,101791.78
2022-10-08T21:32:51.876Z,101791.72
2022-10-08T21:35:18.366Z,101797.69
2022-10-08T21:37:44.771Z,101798.50
2022-10-08T21:40:11.221Z,101802.69
2022-10-08T21:42:37.815Z,101801.66
2022-10-08T21:45:04.557Z,101793.69
2022-10-08T21:47:30.977Z,101800.59
2022-10-08T21:49:57.370Z,101808.22
2022-10-08T21:52:23.786Z,101802.81
2022-10-08T21:54:50.214Z,101799.34
2022-10-08T21:57:16.682Z,101800.22
2022-10-08T21:59:43.161Z,101799.25
2022-10-08T22:02:09.660Z,101808.66
2022-10-08T22:04:36.124Z,101804.19
2022-10-08T22:07:04.570Z,101814.50
2022-10-08T22:09:34.406Z,101809.13
2022-10-08T22:12:01.641Z,101816.91
2022-10-08T22:14:28.445Z,101819.31
2022-10-08T22:16:54.998Z,101821.72
2022-10-08T22:19:21.441Z,101825.94
2022-10-08T22:21:47.849Z,101829.34
2022-10-08T22:24:14.928Z,101830.16
2022-10-08T22:26:44.654Z,101830.16
2022-10-08T22:29:11.264Z,101835.34
2022-10-08T22:31:38.221Z,101838.75
2022-10-08T22:34:04.970Z,101832.66
2022-10-08T22:36:32.707Z,101838.75
2022-10-08T22:38:59.595Z,101837.75
2022-10-08T22:41:28.463Z,101842.13
2022-10-08T22:43:55.194Z,101842.94
2022-10-08T22:46:25.886Z,101839.47
2022-10-08T22:48:56.031Z,101840.28
2022-10-08T22:51:22.519Z,101839.34
2022-10-08T22:53:49.198Z,101838.38
2022-10-08T22:56:18.513Z,101834.81
2022-10-08T22:58:45.697Z,101839.81
2022-10-08T23:01:15.089Z,101842.31
2022-10-08T23:03:42.061Z,101837.88
2022-10-08T23:06:20.009Z,101841.06
2022-10-08T23:08:47.802Z,101836.59
2022-10-08T23:11:16.020Z,101840.88
2022-10-08T23:13:45.553Z,101837.31
2022-10-08T23:16:13.589Z,101835.53
2022-10-08T23:18:42.210Z,101849.28
2022-10-08T23:21:17.002Z,101850.91
2022-10-08T23:23:44.987Z,101852.41
2022-10-08T23:26:12.023Z,101854.09
2022-10-08T23:28:39.069Z,101858.41
2022-10-08T23:31:17.712Z,101861.69
2022-10-08T23:33:46.270Z,101860.59
2022-10-08T23:36:19.382Z,101854.44
2022-10-08T23:38:46.018Z,101856.94
2022-10-08T23:41:13.452Z,101860.34
2022-10-08T23:43:42.005Z,101852.38
2022-10-08T23:46:10.226Z,101855.69
2022-10-08T23:48:37.031Z,101856.47
2022-10-08T23:51:04.017Z,101854.53
2022-10-08T23:53:30.549Z,101857.81
2022-10-08T23:55:57.012Z,101867.16
2022-10-08T23:58:23.604Z,101871.38
